sensor_id;sensor_type;location;lat;lon;timestamp;temperature;humidity
7842;DHT22;3966;51.052;13.820;2023-02-28T00:00:46;0.90;99.90
7842;DHT22;3966;51.052;13.820;2023-02-28T00:03:12;1.00;99.90
7842;DHT22;3966;51.052;13.820;2023-02-28T00:05:37;0.90;99.90
7842;DHT22;3966;51.052;13.820;2023-02-28T00:08:03;0.80;99.90
7842;DHT22;3966;51.052;13.820;2023-02-28T00:10:30;0.80;99.90
7842;DHT22;3966;51.052;13.820;2023-02-28T00:13:01;0.80;99.90
7842;DHT22;3966;51.052;13.820;2023-02-28T00:15:28;0.80;99.90
7842;DHT22;3966;51.052;13.820;2023-02-28T00:17:53;0.80;99.90
7842;DHT22;3966;51.052;13.820;2023-02-28T00:20:19;0.80;99.90
7842;DHT22;3966;51.052;13.820;2023-02-28T00:22:48;0.80;99.90
7842;DHT22;3966;51.052;13.820;2023-02-28T00:25:16;0.80;99.90
7842;DHT22;3966;51.052;13.820;2023-02-28T00:27:43;0.90;99.90
7842;DHT22;3966;51.052;13.820;2023-02-28T00:30:12;0.90;99.90
7842;DHT22;3966;51.052;13.820;2023-02-28T00:32:37;0.80;99.90
7842;DHT22;3966;51.052;13.820;2023-02-28T00:35:04;0.80;99.90
7842;DHT22;3966;51.052;13.820;2023-02-28T00:37:30;0.80;99.90
7842;DHT22;3966;51.052;13.820;2023-02-28T00:39:56;0.80;99.90
7842;DHT22;3966;51.052;13.820;2023-02-28T00:42:22;0.80;99.90
7842;DHT22;3966;51.052;13.820;2023-02-28T00:44:47;0.80;99.90
7842;DHT22;3966;51.052;13.820;2023-02-28T00:47:13;0.90;99.90
7842;DHT22;3966;51.052;13.820;2023-02-28T00:49:39;0.80;99.90
7842;DHT22;3966;51.052;13.820;2023-02-28T00:52:05;0.80;99.90
7842;DHT22;3966;51.052;13.820;2023-02-28T00:54:30;0.70;99.90
7842;DHT22;3966;51.052;13.820;2023-02-28T00:56:56;0.70;99.90
7842;DHT22;3966;51.052;13.820;2023-02-28T00:59:22;0.70;99.90
7842;DHT22;3966;51.052;13.820;2023-02-28T01:01:47;0.70;99.90
7842;DHT22;3966;51.052;13.820;2023-02-28T01:04:14;0.70;99.90
7842;DHT22;3966;51.052;13.820;2023-02-28T01:06:40;0.70;99.90
7842;DHT22;3966;51.052;13.820;2023-02-28T01:09:06;0.80;99.90
7842;DHT22;3966;51.052;13.820;2023-02-28T01:11:33;0.80;99.90
7842;DHT22;3966;51.052;13.820;2023-02-28T01:13:59;0.80;99.90
7842;DHT22;3966;51.052;13.820;2023-02-28T01:16:25;0.80;99.90
7842;DHT22;3966;51.052;13.820;2023-02-28T01:18:51;0.70;99.90
7842;DHT22;3966;51.052;13.820;2023-02-28T01:21:19;0.80;99.90
7842;DHT22;3966;51.052;13.820;2023-02-28T01:23:46;0.80;99.90
7842;DHT22;3966;51.052;13.820;2023-02-28T01:26:14;0.80;99.90
7842;DHT22;3966;51.052;13.820;2023-02-28T01:28:40;0.90;99.90
7842;DHT22;3966;51.052;13.820;2023-02-28T01:31:06;0.80;99.90
7842;DHT22;3966;51.052;13.820;2023-02-28T01:33:32;0.70;99.90
7842;DHT22;3966;51.052;13.820;2023-02-28T01:36:13;0.70;99.90
7842;DHT22;3966;51.052;13.820;2023-02-28T01:38:39;0.70;99.90
7842;DHT22;3966;51.052;13.820;2023-02-28T01:41:06;0.60;99.90
7842;DHT22;3966;51.052;13.820;2023-02-28T01:43:57;0.60;99.90
7842;DHT22;3966;51.052;13.820;2023-02-28T01:46:23;0.60;99.90
7842;DHT22;3966;51.052;13.820;2023-02-28T01:48:57;0.60;99.90
7842;DHT22;3966;51.052;13.820;2023-02-28T01:52:00;0.60;99.90
7842;DHT22;3966;51.052;13.820;2023-02-28T01:54:27;0.60;99.90
7842;DHT22;3966;51.052;13.820;2023-02-28T01:56:55;0.60;99.90
7842;DHT22;3966;51.052;13.820;2023-02-28T01:59:26;0.40;99.90
7842;DHT22;3966;51.052;13.820;2023-02-28T02:01:53;0.40;99.90
7842;DHT22;3966;51.052;13.820;2023-02-28T02:04:21;0.40;99.90
7842;DHT22;3966;51.052;13.820;2023-02-28T02:06:48;0.40;99.90
7842;DHT22;3966;51.052;13.820;2023-02-28T02:09:14;0.40;99.90
7842;DHT22;3966;51.052;13.820;2023-02-28T02:11:42;0.40;99.90
7842;DHT22;3966;51.052;13.820;2023-02-28T02:14:30;0.40;99.90
7842;DHT22;3966;51.052;13.820;2023-02-28T02:17:25;0.20;99.90
7842;DHT22;3966;51.052;13.820;2023-02-28T02:23:07;0.20;99.90
7842;DHT22;3966;51.052;13.820;2023-02-28T02:34:27;0.30;99.90
7842;DHT22;3966;51.052;13.820;2023-02-28T02:37:19;0.20;99.90
7842;DHT22;3966;51.052;13.820;2023-02-28T02:39:52;0.20;99.90
7842;DHT22;3966;51.052;13.820;2023-02-28T02:42:31;0.20;99.90
7842;DHT22;3966;51.052;13.820;2023-02-28T02:45:05;0.20;99.90
7842;DHT22;3966;51.052;13.820;2023-02-28T02:47:33;0.20;99.90
7842;DHT22;3966;51.052;13.820;2023-02-28T02:50:01;0.20;99.90
7842;DHT22;3966;51.052;13.820;2023-02-28T02:52:38;0.20;99.90
7842;DHT22;3966;51.052;13.820;2023-02-28T02:55:07;0.20;99.90
7842;DHT22;3966;51.052;13.820;2023-02-28T02:57:49;0.20;99.90
7842;DHT22;3966;51.052;13.820;2023-02-28T03:00:18;0.20;99.90
7842;DHT22;3966;51.052;13.820;2023-02-28T03:02:47;0.10;99.90
7842;DHT22;3966;51.052;13.820;2023-02-28T03:05:30;0.00;99.90
7842;DHT22;3966;51.052;13.820;2023-02-28T03:07:57;0.00;99.90
7842;DHT22;3966;51.052;13.820;2023-02-28T03:10:43;0.00;99.90
7842;DHT22;3966;51.052;13.820;2023-02-28T03:18:54;0.00;99.90
7842;DHT22;3966;51.052;13.820;2023-02-28T03:24:00;0.00;99.90
7842;DHT22;3966;51.052;13.820;2023-02-28T03:26:29;-0.10;99.90
7842;DHT22;3966;51.052;13.820;2023-02-28T03:31:50;-0.10;99.90
7842;DHT22;3966;51.052;13.820;2023-02-28T03:34:27;-0.20;99.90
7842;DHT22;3966;51.052;13.820;2023-02-28T03:36:59;-0.20;99.90
7842;DHT22;3966;51.052;13.820;2023-02-28T03:39:36;-0.30;99.90
7842;DHT22;3966;51.052;13.820;2023-02-28T03:42:13;-0.30;99.90
7842;DHT22;3966;51.052;13.820;2023-02-28T03:44:53;-0.30;99.90
7842;DHT22;3966;51.052;13.820;2023-02-28T03:47:38;-0.30;99.90
7842;DHT22;3966;51.052;13.820;2023-02-28T03:50:21;-0.30;99.90
7842;DHT22;3966;51.052;13.820;2023-02-28T03:52:51;-0.40;99.90
7842;DHT22;3966;51.052;13.820;2023-02-28T03:55:19;-0.40;99.90
7842;DHT22;3966;51.052;13.820;2023-02-28T04:00:37;-0.50;99.90
7842;DHT22;3966;51.052;13.820;2023-02-28T04:03:04;-0.70;99.90
7842;DHT22;3966;51.052;13.820;2023-02-28T04:05:30;-0.60;99.90
7842;DHT22;3966;51.052;13.820;2023-02-28T04:08:07;-0.70;99.90
7842;DHT22;3966;51.052;13.820;2023-02-28T04:10:33;-0.70;99.90
7842;DHT22;3966;51.052;13.820;2023-02-28T04:12:59;-0.70;99.90
7842;DHT22;3966;51.052;13.820;2023-02-28T04:15:24;-0.70;99.90
7842;DHT22;3966;51.052;13.820;2023-02-28T04:17:50;-0.70;99.90
7842;DHT22;3966;51.052;13.820;2023-02-28T04:20:16;-0.80;99.90
7842;DHT22;3966;51.052;13.820;2023-02-28T04:22:41;-0.80;99.90
7842;DHT22;3966;51.052;13.820;2023-02-28T04:25:07;-0.80;99.90
7842;DHT22;3966;51.052;13.820;2023-02-28T04:27:33;-0.80;99.90
7842;DHT22;3966;51.052;13.820;2023-02-28T04:29:59;-0.80;99.90
7842;DHT22;3966;51.052;13.820;2023-02-28T04:32:25;-0.80;99.90
7842;DHT22;3966;51.052;13.820;2023-02-28T04:34:50;-0.90;99.90
7842;DHT22;3966;51.052;13.820;2023-02-28T04:37:16;-0.90;99.90
7842;DHT22;3966;51.052;13.820;2023-02-28T04:39:42;-0.90;99.90
7842;DHT22;3966;51.052;13.820;2023-02-28T04:42:08;-1.00;99.90
7842;DHT22;3966;51.052;13.820;2023-02-28T04:44:34;-0.90;99.90
7842;DHT22;3966;51.052;13.820;2023-02-28T04:47:00;-1.00;99.90
7842;DHT22;3966;51.052;13.820;2023-02-28T04:49:25;-1.00;99.90
7842;DHT22;3966;51.052;13.820;2023-02-28T04:51:51;-1.00;99.90
7842;DHT22;3966;51.052;13.820;2023-02-28T04:54:18;-1.00;99.90
7842;DHT22;3966;51.052;13.820;2023-02-28T04:56:44;-1.10;99.90
7842;DHT22;3966;51.052;13.820;2023-02-28T04:59:09;-1.20;99.90
7842;DHT22;3966;51.052;13.820;2023-02-28T05:01:35;-1.20;99.90
7842;DHT22;3966;51.052;13.820;2023-02-28T05:04:02;-1.20;99.90
7842;DHT22;3966;51.052;13.820;2023-02-28T05:06:30;-1.10;99.90
7842;DHT22;3966;51.052;13.820;2023-02-28T05:08:57;-1.10;99.90
7842;DHT22;3966;51.052;13.820;2023-02-28T05:11:26;-1.20;99.90
7842;DHT22;3966;51.052;13.820;2023-02-28T05:13:52;-1.20;99.90
7842;DHT22;3966;51.052;13.820;2023-02-28T05:16:19;-1.30;99.90
7842;DHT22;3966;51.052;13.820;2023-02-28T05:18:45;-1.30;99.90
7842;DHT22;3966;51.052;13.820;2023-02-28T05:21:27;-1.30;99.90
7842;DHT22;3966;51.052;13.820;2023-02-28T05:23:53;-1.20;99.90
7842;DHT22;3966;51.052;13.820;2023-02-28T05:26:19;-1.20;99.90
7842;DHT22;3966;51.052;13.820;2023-02-28T05:28:45;-1.20;99.90
7842;DHT22;3966;51.052;13.820;2023-02-28T05:31:11;-1.30;99.90
7842;DHT22;3966;51.052;13.820;2023-02-28T05:33:37;-1.30;99.90
7842;DHT22;3966;51.052;13.820;2023-02-28T05:36:03;-1.30;99.90
7842;DHT22;3966;51.052;13.820;2023-02-28T05:38:29;-1.20;99.90
7842;DHT22;3966;51.052;13.820;2023-02-28T05:40:54;-1.20;99.90
7842;DHT22;3966;51.052;13.820;2023-02-28T05:43:20;-1.20;99.90
7842;DHT22;3966;51.052;13.820;2023-02-28T05:45:45;-1.30;99.90
7842;DHT22;3966;51.052;13.820;2023-02-28T05:48:11;-1.20;99.90
7842;DHT22;3966;51.052;13.820;2023-02-28T05:50:37;-1.30;99.90
7842;DHT22;3966;51.052;13.820;2023-02-28T05:53:03;-1.30;99.90
7842;DHT22;3966;51.052;13.820;2023-02-28T05:55:28;-1.30;99.90
7842;DHT22;3966;51.052;13.820;2023-02-28T05:57:54;-1.30;99.90
7842;DHT22;3966;51.052;13.820;2023-02-28T06:00:21;-1.30;99.90
7842;DHT22;3966;51.052;13.820;2023-02-28T06:02:48;-1.30;99.90
7842;DHT22;3966;51.052;13.820;2023-02-28T06:05:17;-1.30;99.90
7842;DHT22;3966;51.052;13.820;2023-02-28T06:07:50;-1.30;99.90
7842;DHT22;3966;51.052;13.820;2023-02-28T06:10:16;-1.30;99.90
7842;DHT22;3966;51.052;13.820;2023-02-28T06:12:43;-1.30;99.90
7842;DHT22;3966;51.052;13.820;2023-02-28T06:15:12;-1.30;99.90
7842;DHT22;3966;51.052;13.820;2023-02-28T06:17:43;-1.30;99.90
7842;DHT22;3966;51.052;13.820;2023-02-28T06:20:10;-1.30;99.90
7842;DHT22;3966;51.052;13.820;2023-02-28T06:22:38;-1.30;99.90
7842;DHT22;3966;51.052;13.820;2023-02-28T06:25:06;-1.40;99.90
7842;DHT22;3966;51.052;13.820;2023-02-28T06:27:33;-1.40;99.90
7842;DHT22;3966;51.052;13.820;2023-02-28T06:29:59;-1.40;99.90
7842;DHT22;3966;51.052;13.820;2023-02-28T06:32:25;-1.40;99.90
7842;DHT22;3966;51.052;13.820;2023-02-28T06:34:50;-1.30;99.90
7842;DHT22;3966;51.052;13.820;2023-02-28T06:37:17;-1.30;99.90
7842;DHT22;3966;51.052;13.820;2023-02-28T06:39:43;-1.30;99.90
7842;DHT22;3966;51.052;13.820;2023-02-28T06:42:09;-1.30;99.90
7842;DHT22;3966;51.052;13.820;2023-02-28T06:44:34;-1.30;99.90
7842;DHT22;3966;51.052;13.820;2023-02-28T06:47:04;-1.30;99.90
7842;DHT22;3966;51.052;13.820;2023-02-28T06:49:32;-1.30;99.90
7842;DHT22;3966;51.052;13.820;2023-02-28T06:51:59;-1.20;99.90
7842;DHT22;3966;51.052;13.820;2023-02-28T06:54:24;-1.10;99.90
7842;DHT22;3966;51.052;13.820;2023-02-28T06:56:50;-1.10;99.90
7842;DHT22;3966;51.052;13.820;2023-02-28T06:59:16;-1.00;99.90
7842;DHT22;3966;51.052;13.820;2023-02-28T07:01:42;-1.00;99.90
7842;DHT22;3966;51.052;13.820;2023-02-28T07:04:08;-0.90;99.90
7842;DHT22;3966;51.052;13.820;2023-02-28T07:06:34;-0.90;99.90
7842;DHT22;3966;51.052;13.820;2023-02-28T07:08:59;-0.90;99.90
7842;DHT22;3966;51.052;13.820;2023-02-28T07:11:27;-0.80;99.90
7842;DHT22;3966;51.052;13.820;2023-02-28T07:13:56;-0.70;99.90
7842;DHT22;3966;51.052;13.820;2023-02-28T07:16:23;-0.70;99.90
7842;DHT22;3966;51.052;13.820;2023-02-28T07:18:49;-0.60;99.90
7842;DHT22;3966;51.052;13.820;2023-02-28T07:21:17;-0.50;99.90
7842;DHT22;3966;51.052;13.820;2023-02-28T07:23:43;-0.40;99.90
7842;DHT22;3966;51.052;13.820;2023-02-28T07:26:14;-0.30;99.90
7842;DHT22;3966;51.052;13.820;2023-02-28T07:28:45;-0.30;99.90
7842;DHT22;3966;51.052;13.820;2023-02-28T07:31:12;-0.20;99.90
7842;DHT22;3966;51.052;13.820;2023-02-28T07:33:39;-0.30;99.90
7842;DHT22;3966;51.052;13.820;2023-02-28T07:36:07;-0.30;99.90
7842;DHT22;3966;51.052;13.820;2023-02-28T07:38:34;-0.20;99.90
7842;DHT22;3966;51.052;13.820;2023-02-28T07:41:01;-0.20;99.90
7842;DHT22;3966;51.052;13.820;2023-02-28T07:43:30;-0.10;99.90
7842;DHT22;3966;51.052;13.820;2023-02-28T07:45:55;0.00;99.90
7842;DHT22;3966;51.052;13.820;2023-02-28T07:48:21;0.00;99.90
7842;DHT22;3966;51.052;13.820;2023-02-28T07:50:57;0.00;99.90
7842;DHT22;3966;51.052;13.820;2023-02-28T07:53:23;0.00;99.90
7842;DHT22;3966;51.052;13.820;2023-02-28T07:55:49;0.10;99.90
7842;DHT22;3966;51.052;13.820;2023-02-28T07:58:14;0.20;99.90
7842;DHT22;3966;51.052;13.820;2023-02-28T08:00:40;0.30;99.90
7842;DHT22;3966;51.052;13.820;2023-02-28T08:03:06;0.50;99.90
7842;DHT22;3966;51.052;13.820;2023-02-28T08:05:31;0.60;99.90
7842;DHT22;3966;51.052;13.820;2023-02-28T08:07:57;0.70;99.90
7842;DHT22;3966;51.052;13.820;2023-02-28T08:10:23;0.70;99.90
7842;DHT22;3966;51.052;13.820;2023-02-28T08:12:49;0.70;99.90
7842;DHT22;3966;51.052;13.820;2023-02-28T08:15:15;0.70;99.90
7842;DHT22;3966;51.052;13.820;2023-02-28T08:17:41;0.70;99.90
7842;DHT22;3966;51.052;13.820;2023-02-28T08:20:07;0.90;99.90
7842;DHT22;3966;51.052;13.820;2023-02-28T08:22:34;0.90;99.90
7842;DHT22;3966;51.052;13.820;2023-02-28T08:24:59;0.90;99.90
7842;DHT22;3966;51.052;13.820;2023-02-28T08:27:25;1.00;99.90
7842;DHT22;3966;51.052;13.820;2023-02-28T08:29:51;1.00;99.90
7842;DHT22;3966;51.052;13.820;2023-02-28T08:32:16;1.10;99.90
7842;DHT22;3966;51.052;13.820;2023-02-28T08:34:42;1.00;99.90
7842;DHT22;3966;51.052;13.820;2023-02-28T08:37:07;1.00;99.90
7842;DHT22;3966;51.052;13.820;2023-02-28T08:39:36;1.20;99.90
7842;DHT22;3966;51.052;13.820;2023-02-28T08:42:03;1.20;99.90
7842;DHT22;3966;51.052;13.820;2023-02-28T08:44:29;1.30;99.90
7842;DHT22;3966;51.052;13.820;2023-02-28T08:46:54;1.40;99.90
7842;DHT22;3966;51.052;13.820;2023-02-28T08:49:20;1.40;99.90
7842;DHT22;3966;51.052;13.820;2023-02-28T08:51:46;1.50;99.90
7842;DHT22;3966;51.052;13.820;2023-02-28T08:54:11;1.60;99.90
7842;DHT22;3966;51.052;13.820;2023-02-28T08:56:38;1.80;99.90
7842;DHT22;3966;51.052;13.820;2023-02-28T08:59:04;2.00;99.90
7842;DHT22;3966;51.052;13.820;2023-02-28T09:01:30;2.00;99.90
7842;DHT22;3966;51.052;13.820;2023-02-28T09:03:57;2.30;99.90
7842;DHT22;3966;51.052;13.820;2023-02-28T09:06:24;2.30;99.90
7842;DHT22;3966;51.052;13.820;2023-02-28T09:08:50;2.40;99.90
7842;DHT22;3966;51.052;13.820;2023-02-28T09:11:16;2.40;99.90
7842;DHT22;3966;51.052;13.820;2023-02-28T09:13:42;2.40;99.90
7842;DHT22;3966;51.052;13.820;2023-02-28T09:16:11;2.40;99.90
7842;DHT22;3966;51.052;13.820;2023-02-28T09:18:37;2.60;99.90
7842;DHT22;3966;51.052;13.820;2023-02-28T09:21:08;2.60;99.90
7842;DHT22;3966;51.052;13.820;2023-02-28T09:23:35;2.60;99.90
7842;DHT22;3966;51.052;13.820;2023-02-28T09:26:03;2.60;99.90
7842;DHT22;3966;51.052;13.820;2023-02-28T09:28:29;2.60;99.90
7842;DHT22;3966;51.052;13.820;2023-02-28T09:30:58;2.70;99.90
7842;DHT22;3966;51.052;13.820;2023-02-28T09:33:25;2.90;99.90
7842;DHT22;3966;51.052;13.820;2023-02-28T09:35:58;3.00;99.90
7842;DHT22;3966;51.052;13.820;2023-02-28T09:38:25;3.00;99.90
7842;DHT22;3966;51.052;13.820;2023-02-28T09:41:01;3.20;99.90
7842;DHT22;3966;51.052;13.820;2023-02-28T09:43:33;3.40;99.90
7842;DHT22;3966;51.052;13.820;2023-02-28T09:46:14;3.40;99.90
7842;DHT22;3966;51.052;13.820;2023-02-28T09:48:46;3.40;99.90
7842;DHT22;3966;51.052;13.820;2023-02-28T09:53:53;3.50;99.90
7842;DHT22;3966;51.052;13.820;2023-02-28T09:56:26;3.30;99.90
7842;DHT22;3966;51.052;13.820;2023-02-28T09:58:58;3.50;99.90
7842;DHT22;3966;51.052;13.820;2023-02-28T10:01:31;3.70;99.90
7842;DHT22;3966;51.052;13.820;2023-02-28T10:04:26;4.00;99.90
7842;DHT22;3966;51.052;13.820;2023-02-28T10:06:59;4.00;99.90
7842;DHT22;3966;51.052;13.820;2023-02-28T10:09:31;4.20;99.90
7842;DHT22;3966;51.052;13.820;2023-02-28T10:12:04;4.20;99.90
7842;DHT22;3966;51.052;13.820;2023-02-28T10:14:33;4.40;99.90
7842;DHT22;3966;51.052;13.820;2023-02-28T10:17:12;4.40;99.90
7842;DHT22;3966;51.052;13.820;2023-02-28T10:20:00;4.30;99.90
7842;DHT22;3966;51.052;13.820;2023-02-28T10:25:22;4.30;99.90
7842;DHT22;3966;51.052;13.820;2023-02-28T10:27:47;4.00;99.90
7842;DHT22;3966;51.052;13.820;2023-02-28T10:30:14;4.00;99.90
7842;DHT22;3966;51.052;13.820;2023-02-28T10:32:49;4.00;99.90
7842;DHT22;3966;51.052;13.820;2023-02-28T10:35:18;4.20;99.90
7842;DHT22;3966;51.052;13.820;2023-02-28T10:37:46;4.20;99.90
7842;DHT22;3966;51.052;13.820;2023-02-28T10:43:00;4.20;99.90
7842;DHT22;3966;51.052;13.820;2023-02-28T10:45:32;4.30;99.90
7842;DHT22;3966;51.052;13.820;2023-02-28T10:58:50;3.80;99.90
7842;DHT22;3966;51.052;13.820;2023-02-28T11:01:19;4.00;99.90
7842;DHT22;3966;51.052;13.820;2023-02-28T11:03:45;4.20;99.90
7842;DHT22;3966;51.052;13.820;2023-02-28T11:06:32;4.30;99.90
7842;DHT22;3966;51.052;13.820;2023-02-28T11:09:02;4.80;99.90
7842;DHT22;3966;51.052;13.820;2023-02-28T11:11:30;5.40;99.90
7842;DHT22;3966;51.052;13.820;2023-02-28T11:14:06;5.00;99.90
7842;DHT22;3966;51.052;13.820;2023-02-28T11:16:41;5.00;99.90
7842;DHT22;3966;51.052;13.820;2023-02-28T11:19:23;5.10;99.90
7842;DHT22;3966;51.052;13.820;2023-02-28T11:21:57;5.20;99.90
7842;DHT22;3966;51.052;13.820;2023-02-28T11:29:57;5.60;99.90
7842;DHT22;3966;51.052;13.820;2023-02-28T11:32:30;6.10;99.90
7842;DHT22;3966;51.052;13.820;2023-02-28T11:35:03;6.50;99.90
7842;DHT22;3966;51.052;13.820;2023-02-28T11:37:31;6.70;99.90
7842;DHT22;3966;51.052;13.820;2023-02-28T11:39:56;6.60;99.90
7842;DHT22;3966;51.052;13.820;2023-02-28T11:50:27;6.70;99.50
7842;DHT22;3966;51.052;13.820;2023-02-28T11:53:22;6.90;99.90
7842;DHT22;3966;51.052;13.820;2023-02-28T11:58:50;6.90;98.20
7842;DHT22;3966;51.052;13.820;2023-02-28T12:01:33;6.40;99.90
7842;DHT22;3966;51.052;13.820;2023-02-28T12:04:11;6.80;99.90
7842;DHT22;3966;51.052;13.820;2023-02-28T12:07:00;7.30;97.80
7842;DHT22;3966;51.052;13.820;2023-02-28T12:09:49;7.40;95.60
7842;DHT22;3966;51.052;13.820;2023-02-28T12:14:58;8.00;96.10
7842;DHT22;3966;51.052;13.820;2023-02-28T12:17:41;8.00;91.20
7842;DHT22;3966;51.052;13.820;2023-02-28T12:20:38;7.60;93.00
7842;DHT22;3966;51.052;13.820;2023-02-28T12:28:29;8.00;94.70
7842;DHT22;3966;51.052;13.820;2023-02-28T12:31:11;8.10;94.40
7842;DHT22;3966;51.052;13.820;2023-02-28T12:33:43;8.00;93.30
7842;DHT22;3966;51.052;13.820;2023-02-28T12:36:12;6.90;94.20
7842;DHT22;3966;51.052;13.820;2023-02-28T12:41:39;6.70;99.90
7842;DHT22;3966;51.052;13.820;2023-02-28T12:44:19;7.20;99.90
7842;DHT22;3966;51.052;13.820;2023-02-28T12:46:52;7.70;99.90
7842;DHT22;3966;51.052;13.820;2023-02-28T12:52:08;6.80;96.90
7842;DHT22;3966;51.052;13.820;2023-02-28T12:55:10;6.70;99.90
7842;DHT22;3966;51.052;13.820;2023-02-28T12:57:42;7.20;99.90
7842;DHT22;3966;51.052;13.820;2023-02-28T13:00:17;7.10;99.80
7842;DHT22;3966;51.052;13.820;2023-02-28T13:08:23;7.80;96.40
7842;DHT22;3966;51.052;13.820;2023-02-28T13:10:52;6.70;97.80
7842;DHT22;3966;51.052;13.820;2023-02-28T13:13:26;6.50;99.70
7842;DHT22;3966;51.052;13.820;2023-02-28T13:16:10;7.20;99.90
7842;DHT22;3966;51.052;13.820;2023-02-28T13:18:44;7.90;98.80
7842;DHT22;3966;51.052;13.820;2023-02-28T13:21:27;7.90;95.20
7842;DHT22;3966;51.052;13.820;2023-02-28T13:28:57;7.70;98.40
7842;DHT22;3966;51.052;13.820;2023-02-28T13:31:24;7.80;97.00
7842;DHT22;3966;51.052;13.820;2023-02-28T13:36:29;7.90;94.90
7842;DHT22;3966;51.052;13.820;2023-02-28T13:41:48;9.40;90.60
7842;DHT22;3966;51.052;13.820;2023-02-28T13:44:22;9.90;86.30
7842;DHT22;3966;51.052;13.820;2023-02-28T13:51:53;9.40;85.60
7842;DHT22;3966;51.052;13.820;2023-02-28T13:57:38;10.50;80.10
7842;DHT22;3966;51.052;13.820;2023-02-28T14:00:39;10.90;76.80
7842;DHT22;3966;51.052;13.820;2023-02-28T14:05:37;9.70;76.80
7842;DHT22;3966;51.052;13.820;2023-02-28T14:08:22;10.50;77.10
7842;DHT22;3966;51.052;13.820;2023-02-28T14:11:04;10.00;77.70
7842;DHT22;3966;51.052;13.820;2023-02-28T14:13:46;10.40;74.50
7842;DHT22;3966;51.052;13.820;2023-02-28T14:16:20;9.30;76.40
7842;DHT22;3966;51.052;13.820;2023-02-28T14:19:02;9.90;78.60
7842;DHT22;3966;51.052;13.820;2023-02-28T14:21:39;10.10;76.90
7842;DHT22;3966;51.052;13.820;2023-02-28T14:38:59;9.80;74.40
7842;DHT22;3966;51.052;13.820;2023-02-28T14:41:38;10.00;76.90
7842;DHT22;3966;51.052;13.820;2023-02-28T14:44:18;9.60;75.90
7842;DHT22;3966;51.052;13.820;2023-02-28T14:46:46;9.20;78.20
7842;DHT22;3966;51.052;13.820;2023-02-28T14:49:20;8.80;78.80
7842;DHT22;3966;51.052;13.820;2023-02-28T14:51:50;9.10;80.40
7842;DHT22;3966;51.052;13.820;2023-02-28T14:54:27;8.70;81.40
7842;DHT22;3966;51.052;13.820;2023-02-28T14:56:52;8.50;82.30
7842;DHT22;3966;51.052;13.820;2023-02-28T14:59:30;8.40;82.90
7842;DHT22;3966;51.052;13.820;2023-02-28T15:04:42;8.70;84.50
7842;DHT22;3966;51.052;13.820;2023-02-28T15:07:10;8.70;86.60
7842;DHT22;3966;51.052;13.820;2023-02-28T15:09:36;8.90;84.20
7842;DHT22;3966;51.052;13.820;2023-02-28T15:12:02;8.80;83.80
7842;DHT22;3966;51.052;13.820;2023-02-28T15:14:28;9.50;82.10
7842;DHT22;3966;51.052;13.820;2023-02-28T15:17:02;8.80;81.40
7842;DHT22;3966;51.052;13.820;2023-02-28T15:19:31;8.80;83.80
7842;DHT22;3966;51.052;13.820;2023-02-28T15:22:05;9.00;85.30
7842;DHT22;3966;51.052;13.820;2023-02-28T15:24:47;9.20;81.20
7842;DHT22;3966;51.052;13.820;2023-02-28T15:27:35;8.80;81.00
7842;DHT22;3966;51.052;13.820;2023-02-28T15:30:15;8.90;81.90
7842;DHT22;3966;51.052;13.820;2023-02-28T15:32:42;8.50;82.30
7842;DHT22;3966;51.052;13.820;2023-02-28T15:35:30;8.10;87.40
7842;DHT22;3966;51.052;13.820;2023-02-28T15:38:40;8.20;89.50
7842;DHT22;3966;51.052;13.820;2023-02-28T15:40:57;8.20;88.60
7842;DHT22;3966;51.052;13.820;2023-02-28T15:45:54;8.40;85.90
7842;DHT22;3966;51.052;13.820;2023-02-28T15:48:33;8.10;89.10
7842;DHT22;3966;51.052;13.820;2023-02-28T15:51:08;9.00;87.40
7842;DHT22;3966;51.052;13.820;2023-02-28T15:53:44;8.60;86.40
7842;DHT22;3966;51.052;13.820;2023-02-28T15:56:29;8.80;85.00
7842;DHT22;3966;51.052;13.820;2023-02-28T15:59:02;8.80;83.40
7842;DHT22;3966;51.052;13.820;2023-02-28T16:01:31;8.10;86.20
7842;DHT22;3966;51.052;13.820;2023-02-28T16:04:04;7.90;90.00
7842;DHT22;3966;51.052;13.820;2023-02-28T16:06:44;8.10;90.30
7842;DHT22;3966;51.052;13.820;2023-02-28T16:09:12;8.40;87.90
7842;DHT22;3966;51.052;13.820;2023-02-28T16:11:49;7.90;89.30
7842;DHT22;3966;51.052;13.820;2023-02-28T16:14:24;8.20;90.00
7842;DHT22;3966;51.052;13.820;2023-02-28T16:17:02;7.90;88.70
7842;DHT22;3966;51.052;13.820;2023-02-28T16:19:28;6.90;92.50
7842;DHT22;3966;51.052;13.820;2023-02-28T16:21:54;6.10;99.00
7842;DHT22;3966;51.052;13.820;2023-02-28T16:24:20;5.60;99.90
7842;DHT22;3966;51.052;13.820;2023-02-28T16:26:47;5.90;99.90
7842;DHT22;3966;51.052;13.820;2023-02-28T16:29:27;5.70;99.90
7842;DHT22;3966;51.052;13.820;2023-02-28T16:31:55;5.50;99.90
7842;DHT22;3966;51.052;13.820;2023-02-28T16:34:21;5.30;99.90
7842;DHT22;3966;51.052;13.820;2023-02-28T16:36:47;5.10;99.90
7842;DHT22;3966;51.052;13.820;2023-02-28T16:39:13;5.00;99.90
7842;DHT22;3966;51.052;13.820;2023-02-28T16:41:42;4.90;99.90
7842;DHT22;3966;51.052;13.820;2023-02-28T16:44:12;4.70;99.90
7842;DHT22;3966;51.052;13.820;2023-02-28T16:46:38;4.70;99.90
7842;DHT22;3966;51.052;13.820;2023-02-28T16:49:04;4.40;99.90
7842;DHT22;3966;51.052;13.820;2023-02-28T16:51:30;4.40;99.90
7842;DHT22;3966;51.052;13.820;2023-02-28T16:53:55;4.30;99.90
7842;DHT22;3966;51.052;13.820;2023-02-28T16:56:24;4.10;99.90
7842;DHT22;3966;51.052;13.820;2023-02-28T16:58:51;3.90;99.90
7842;DHT22;3966;51.052;13.820;2023-02-28T17:01:18;3.90;99.90
7842;DHT22;3966;51.052;13.820;2023-02-28T17:03:50;3.70;99.90
7842;DHT22;3966;51.052;13.820;2023-02-28T17:06:22;3.60;99.90
7842;DHT22;3966;51.052;13.820;2023-02-28T17:08:49;3.50;99.90
7842;DHT22;3966;51.052;13.820;2023-02-28T17:11:15;3.40;99.90
7842;DHT22;3966;51.052;13.820;2023-02-28T17:13:41;3.30;99.90
7842;DHT22;3966;51.052;13.820;2023-02-28T17:16:15;3.30;99.90
7842;DHT22;3966;51.052;13.820;2023-02-28T17:18:43;3.30;99.90
7842;DHT22;3966;51.052;13.820;2023-02-28T17:21:17;3.20;99.90
7842;DHT22;3966;51.052;13.820;2023-02-28T17:23:43;3.10;99.90
7842;DHT22;3966;51.052;13.820;2023-02-28T17:26:17;3.10;99.90
7842;DHT22;3966;51.052;13.820;2023-02-28T17:28:48;2.90;99.90
7842;DHT22;3966;51.052;13.820;2023-02-28T17:31:14;2.80;99.90
7842;DHT22;3966;51.052;13.820;2023-02-28T17:33:40;2.80;99.90
7842;DHT22;3966;51.052;13.820;2023-02-28T17:36:06;2.80;99.90
7842;DHT22;3966;51.052;13.820;2023-02-28T17:38:35;2.80;99.90
7842;DHT22;3966;51.052;13.820;2023-02-28T17:41:01;2.80;99.90
7842;DHT22;3966;51.052;13.820;2023-02-28T17:43:27;2.70;99.90
7842;DHT22;3966;51.052;13.820;2023-02-28T17:45:54;2.70;99.90
7842;DHT22;3966;51.052;13.820;2023-02-28T17:48:19;2.50;99.90
7842;DHT22;3966;51.052;13.820;2023-02-28T17:50:45;2.40;99.90
7842;DHT22;3966;51.052;13.820;2023-02-28T17:53:11;2.30;99.90
7842;DHT22;3966;51.052;13.820;2023-02-28T17:55:37;2.30;99.90
7842;DHT22;3966;51.052;13.820;2023-02-28T17:58:03;2.30;99.90
7842;DHT22;3966;51.052;13.820;2023-02-28T18:00:29;2.20;99.90
7842;DHT22;3966;51.052;13.820;2023-02-28T18:02:55;2.10;99.90
7842;DHT22;3966;51.052;13.820;2023-02-28T18:05:20;2.10;99.90
7842;DHT22;3966;51.052;13.820;2023-02-28T18:07:46;2.10;99.90
7842;DHT22;3966;51.052;13.820;2023-02-28T18:10:19;2.00;99.90
7842;DHT22;3966;51.052;13.820;2023-02-28T18:12:51;2.00;99.90
7842;DHT22;3966;51.052;13.820;2023-02-28T18:15:18;2.00;99.90
7842;DHT22;3966;51.052;13.820;2023-02-28T18:17:48;2.00;99.90